createdAt,value
2018-07-06T00:00:07.158Z,0.00
2018-07-06T00:01:07.135Z,0.00
2018-07-06T00:02:07.107Z,0.00
2018-07-06T00:03:07.084Z,0.00
2018-07-06T00:04:07.059Z,0.00
2018-07-06T00:05:07.033Z,0.00
2018-07-06T00:06:07.010Z,0.00
2018-07-06T00:07:06.986Z,0.00
2018-07-06T00:08:06.961Z,0.00
2018-07-06T00:09:06.937Z,0.00
2018-07-06T00:10:06.914Z,0.00
2018-07-06T00:11:06.969Z,0.00
2018-07-06T00:12:06.865Z,0.00
2018-07-06T00:13:06.848Z,0.00
2018-07-06T00:14:06.820Z,0.00
2018-07-06T00:15:06.806Z,0.00
2018-07-06T00:16:06.771Z,0.00
2018-07-06T00:17:06.748Z,0.00
2018-07-06T00:18:06.720Z,0.00
2018-07-06T00:19:06.696Z,0.00
2018-07-06T00:20:06.673Z,0.00
2018-07-06T00:21:06.652Z,0.00
2018-07-06T00:22:06.627Z,0.00
2018-07-06T00:23:06.602Z,0.00
2018-07-06T00:24:06.579Z,0.00
2018-07-06T00:25:06.555Z,0.00
2018-07-06T00:26:06.531Z,0.00
2018-07-06T00:27:06.506Z,0.00
2018-07-06T00:28:06.482Z,0.00
2018-07-06T00:29:06.455Z,0.00
2018-07-06T00:30:06.433Z,0.00
2018-07-06T00:31:06.411Z,0.00
2018-07-06T00:32:06.384Z,0.00
2018-07-06T00:33:06.362Z,0.00
2018-07-06T00:34:06.342Z,0.00
2018-07-06T00:35:06.322Z,0.00
2018-07-06T00:36:06.291Z,0.00
2018-07-06T00:37:06.264Z,0.00
2018-07-06T00:38:06.241Z,0.00
2018-07-06T00:39:06.219Z,0.00
2018-07-06T00:40:06.201Z,0.00
2018-07-06T00:41:06.167Z,0.00
2018-07-06T00:42:06.146Z,0.00
2018-07-06T00:43:06.118Z,0.00
2018-07-06T00:44:06.098Z,0.00
2018-07-06T00:45:06.075Z,0.00
2018-07-06T00:46:06.050Z,0.00
2018-07-06T00:47:06.031Z,0.00
2018-07-06T00:48:06.002Z,0.00
2018-07-06T00:49:05.976Z,0.00
2018-07-06T00:50:05.954Z,0.00
2018-07-06T00:51:05.927Z,0.00
2018-07-06T00:52:05.907Z,0.00
2018-07-06T00:53:05.884Z,0.00
2018-07-06T00:54:05.859Z,0.00
2018-07-06T00:55:05.834Z,0.00
2018-07-06T00:56:05.808Z,0.00
2018-07-06T00:57:05.787Z,0.00
2018-07-06T00:58:05.768Z,0.00
2018-07-06T00:59:05.742Z,0.00
2018-07-06T01:00:05.713Z,0.00
2018-07-06T01:01:05.687Z,0.00
2018-07-06T01:02:05.663Z,0.00
2018-07-06T01:03:05.639Z,0.00
2018-07-06T01:04:05.616Z,0.00
2018-07-06T01:05:05.593Z,0.00
2018-07-06T01:06:05.569Z,0.00
2018-07-06T01:07:05.544Z,0.00
2018-07-06T01:08:05.521Z,0.00
2018-07-06T01:09:05.494Z,0.00
2018-07-06T01:10:05.489Z,0.00
2018-07-06T01:11:05.447Z,0.00
2018-07-06T01:12:05.422Z,0.00
2018-07-06T01:13:05.408Z,0.00
2018-07-06T01:14:05.375Z,0.00
2018-07-06T01:15:05.354Z,0.00
2018-07-06T01:16:05.330Z,0.00
2018-07-06T01:17:05.303Z,0.00
2018-07-06T01:18:05.280Z,0.00
2018-07-06T01:19:05.256Z,0.00
2018-07-06T01:20:05.231Z,0.00
2018-07-06T01:21:05.206Z,0.00
2018-07-06T01:22:05.187Z,0.00
2018-07-06T01:23:05.161Z,0.00
2018-07-06T01:24:05.140Z,0.00
2018-07-06T01:25:05.113Z,0.00
2018-07-06T01:26:05.091Z,0.00
2018-07-06T01:27:05.064Z,0.00
2018-07-06T01:28:05.040Z,0.00
2018-07-06T01:29:05.016Z,0.00
2018-07-06T01:30:04.993Z,0.00
2018-07-06T01:31:04.967Z,0.00
2018-07-06T01:32:04.944Z,0.00
2018-07-06T01:33:04.918Z,0.00
2018-07-06T01:34:04.894Z,0.00
2018-07-06T01:35:04.872Z,0.00
2018-07-06T01:36:04.849Z,0.00
2018-07-06T01:37:04.824Z,0.00
2018-07-06T01:38:04.806Z,0.00
2018-07-06T01:39:04.777Z,0.00
2018-07-06T01:40:04.754Z,0.00
2018-07-06T01:41:04.726Z,0.00
2018-07-06T01:42:04.707Z,0.00
2018-07-06T01:43:04.678Z,0.00
2018-07-06T01:44:04.654Z,0.00
2018-07-06T01:45:04.639Z,0.00
2018-07-06T01:46:04.608Z,0.00
2018-07-06T01:47:04.586Z,0.00
2018-07-06T01:48:04.559Z,0.00
2018-07-06T01:49:04.535Z,0.00
2018-07-06T01:50:04.510Z,0.00
2018-07-06T01:51:04.485Z,0.00
2018-07-06T01:52:04.470Z,0.00
2018-07-06T01:53:04.439Z,0.00
2018-07-06T01:54:04.420Z,0.00
2018-07-06T01:55:04.392Z,0.00
2018-07-06T01:56:04.369Z,0.00
2018-07-06T01:57:04.342Z,0.00
2018-07-06T01:58:04.318Z,0.00
2018-07-06T01:59:04.294Z,0.00
2018-07-06T02:00:04.271Z,0.00
2018-07-06T02:01:04.251Z,0.00
2018-07-06T02:02:04.223Z,0.00
2018-07-06T02:03:04.198Z,0.00
2018-07-06T02:04:04.174Z,0.00
2018-07-06T02:05:04.152Z,0.00
2018-07-06T02:06:04.128Z,0.00
2018-07-06T02:07:04.107Z,0.00
2018-07-06T02:08:04.084Z,0.00
2018-07-06T02:09:04.055Z,0.00
2018-07-06T02:10:04.031Z,0.00
2018-07-06T02:11:04.006Z,0.00
2018-07-06T02:12:03.981Z,4.00
2018-07-06T02:13:03.960Z,4.00
2018-07-06T02:14:03.936Z,4.00
2018-07-06T02:15:03.917Z,4.00
2018-07-06T02:16:03.888Z,4.00
2018-07-06T02:17:03.863Z,0.00
2018-07-06T02:18:03.840Z,0.00
2018-07-06T02:19:03.817Z,4.00
2018-07-06T02:20:03.790Z,4.00
2018-07-06T02:21:03.765Z,4.00
2018-07-06T02:22:03.743Z,4.00
2018-07-06T02:23:03.720Z,4.00
2018-07-06T02:24:03.693Z,4.00
2018-07-06T02:25:03.672Z,4.00
2018-07-06T02:26:03.648Z,8.00
2018-07-06T02:27:03.622Z,8.00
2018-07-06T02:28:03.598Z,8.00
2018-07-06T02:29:03.573Z,8.00
2018-07-06T02:30:03.550Z,12.00
2018-07-06T02:31:03.529Z,12.00
2018-07-06T02:32:03.500Z,12.00
2018-07-06T02:33:03.477Z,16.00
2018-07-06T02:34:03.453Z,12.00
2018-07-06T02:35:03.429Z,16.00
2018-07-06T02:36:03.404Z,16.00
2018-07-06T02:37:03.387Z,20.00
2018-07-06T02:38:03.358Z,28.00
2018-07-06T02:39:03.333Z,36.00
2018-07-06T02:40:03.310Z,32.00
2018-07-06T02:41:03.284Z,36.00
2018-07-06T02:42:03.261Z,32.00
2018-07-06T02:43:03.237Z,32.00
2018-07-06T02:44:03.212Z,36.00
2018-07-06T02:45:03.196Z,40.00
2018-07-06T02:46:03.169Z,44.00
2018-07-06T02:47:03.142Z,48.00
2018-07-06T02:48:03.121Z,52.00
2018-07-06T02:49:03.102Z,60.00
2018-07-06T02:50:03.069Z,60.00
2018-07-06T02:51:03.048Z,72.00
2018-07-06T02:52:03.022Z,68.00
2018-07-06T02:53:03.003Z,80.00
2018-07-06T02:54:02.972Z,88.00
2018-07-06T02:55:04.196Z,100.00
2018-07-06T02:56:02.922Z,92.00
2018-07-06T02:57:02.910Z,96.00
2018-07-06T02:58:02.877Z,100.00
2018-07-06T02:59:02.853Z,112.00
2018-07-06T03:00:02.831Z,124.00
2018-07-06T03:01:02.810Z,132.00
2018-07-06T03:02:02.779Z,152.00
2018-07-06T03:03:02.760Z,160.00
2018-07-06T03:04:02.730Z,164.00
2018-07-06T03:05:02.707Z,176.00
2018-07-06T03:06:02.695Z,200.00
2018-07-06T03:07:02.658Z,224.00
2018-07-06T03:08:02.634Z,212.00
2018-07-06T03:09:02.612Z,236.00
2018-07-06T03:10:02.589Z,268.00
2018-07-06T03:11:02.566Z,312.00
2018-07-06T03:12:02.540Z,384.00
2018-07-06T03:13:02.517Z,384.00
2018-07-06T03:14:02.491Z,404.00
2018-07-06T03:15:02.467Z,388.00
2018-07-06T03:16:02.451Z,388.00
2018-07-06T03:17:02.418Z,400.00
2018-07-06T03:18:02.395Z,396.00
2018-07-06T03:19:02.371Z,448.00
2018-07-06T03:20:02.349Z,468.00
2018-07-06T03:21:02.323Z,480.00
2018-07-06T03:22:02.298Z,484.00
2018-07-06T03:23:02.275Z,492.00
2018-07-06T03:24:02.251Z,496.00
2018-07-06T03:25:02.224Z,496.00
2018-07-06T03:26:02.202Z,524.00
2018-07-06T03:27:02.188Z,512.00
2018-07-06T03:28:02.192Z,520.00
2018-07-06T03:29:02.130Z,536.00
2018-07-06T03:30:02.106Z,544.00
2018-07-06T03:31:02.080Z,564.00
2018-07-06T03:32:02.057Z,644.00
2018-07-06T03:33:02.039Z,712.00
2018-07-06T03:34:02.008Z,732.00
2018-07-06T03:35:01.983Z,804.00
2018-07-06T03:36:01.966Z,976.00
2018-07-06T03:37:01.936Z,1044.00
2018-07-06T03:38:01.911Z,1132.00
2018-07-06T03:39:01.885Z,1232.00
2018-07-06T03:40:01.863Z,1196.00
2018-07-06T03:41:01.840Z,1168.00
2018-07-06T03:42:01.816Z,1144.00
2018-07-06T03:43:01.792Z,1068.00
2018-07-06T03:44:01.766Z,960.00
2018-07-06T03:45:01.756Z,992.00
2018-07-06T03:46:01.717Z,1116.00
2018-07-06T03:47:01.699Z,1140.00
2018-07-06T03:48:01.672Z,1184.00
2018-07-06T03:49:01.646Z,1148.00
2018-07-06T03:50:01.623Z,1220.00
2018-07-06T03:51:01.598Z,1192.00
2018-07-06T03:52:01.575Z,1196.00
2018-07-06T03:53:01.549Z,1104.00
2018-07-06T03:54:01.526Z,1048.00
2018-07-06T03:55:01.558Z,1004.00
2018-07-06T03:56:01.477Z,1016.00
2018-07-06T03:57:01.455Z,1112.00
2018-07-06T03:58:01.434Z,1220.00
2018-07-06T03:59:01.706Z,1384.00
2018-07-06T04:00:01.382Z,1476.00
2018-07-06T04:01:01.383Z,1468.00
2018-07-06T04:02:01.332Z,1344.00
2018-07-06T04:03:01.307Z,1400.00
2018-07-06T04:04:01.283Z,1496.00
2018-07-06T04:05:01.265Z,1584.00
2018-07-06T04:06:01.238Z,1580.00
2018-07-06T04:07:01.213Z,1456.00
2018-07-06T04:08:01.189Z,1396.00
2018-07-06T04:09:01.166Z,1432.00
2018-07-06T04:10:01.142Z,1516.00
2018-07-06T04:11:01.117Z,1620.00
2018-07-06T04:12:01.108Z,1576.00
2018-07-06T04:13:01.067Z,1544.00
2018-07-06T04:14:01.043Z,1300.00
2018-07-06T04:15:01.018Z,1104.00
2018-07-06T04:16:01.059Z,1116.00
2018-07-06T04:17:00.976Z,1144.00
2018-07-06T04:18:00.952Z,1188.00
2018-07-06T04:19:00.925Z,1236.00
2018-07-06T04:20:00.902Z,1288.00
2018-07-06T04:21:00.875Z,1296.00
2018-07-06T04:22:00.850Z,1276.00
2018-07-06T04:23:00.827Z,1312.00
2018-07-06T04:24:00.802Z,1328.00
2018-07-06T04:25:00.781Z,1348.00
2018-07-06T04:26:00.755Z,1356.00
2018-07-06T04:27:00.730Z,1352.00
2018-07-06T04:28:00.706Z,1332.00
2018-07-06T04:29:00.684Z,1424.00
2018-07-06T04:30:00.663Z,1536.00
2018-07-06T04:31:00.636Z,1720.00
2018-07-06T04:32:00.615Z,2024.00
2018-07-06T04:33:00.585Z,1960.00
2018-07-06T04:34:00.571Z,1952.00
2018-07-06T04:35:00.536Z,2196.00
2018-07-06T04:36:00.516Z,2476.00
2018-07-06T04:37:00.491Z,2460.00
2018-07-06T04:38:00.466Z,2432.00
2018-07-06T04:39:00.440Z,2500.00
2018-07-06T04:40:00.422Z,2464.00
2018-07-06T04:41:00.392Z,2640.00
2018-07-06T04:42:00.370Z,2676.00
2018-07-06T04:43:00.345Z,2672.00
2018-07-06T04:44:00.319Z,2732.00
2018-07-06T04:45:00.294Z,2824.00
2018-07-06T04:46:00.279Z,3080.00
2018-07-06T04:47:00.246Z,3104.00
2018-07-06T04:48:00.225Z,3140.00
2018-07-06T04:49:00.201Z,3216.00
2018-07-06T04:50:00.176Z,3276.00
2018-07-06T04:51:00.195Z,3364.00
2018-07-06T04:52:00.127Z,3412.00
2018-07-06T04:53:00.102Z,3364.00
2018-07-06T04:54:00.078Z,3188.00
2018-07-06T04:55:00.065Z,3176.00
2018-07-06T04:56:00.032Z,3100.00
2018-07-06T04:57:00.007Z,3068.00
2018-07-06T04:57:59.984Z,3304.00
2018-07-06T04:58:59.956Z,3572.00
2018-07-06T04:59:59.934Z,3560.00
2018-07-06T05:00:59.914Z,3568.00
2018-07-06T05:01:59.884Z,3704.00
2018-07-06T05:02:59.873Z,3720.00
2018-07-06T05:03:59.835Z,3440.00
2018-07-06T05:04:59.813Z,3344.00
2018-07-06T05:05:59.788Z,3608.00
2018-07-06T05:06:59.768Z,3664.00
2018-07-06T05:07:59.743Z,3688.00
2018-07-06T05:08:59.714Z,3792.00
2018-07-06T05:09:59.691Z,3828.00
2018-07-06T05:10:59.668Z,3904.00
2018-07-06T05:11:59.641Z,4060.00
2018-07-06T05:12:59.618Z,3984.00
2018-07-06T05:13:59.593Z,3928.00
2018-07-06T05:14:59.569Z,3776.00
2018-07-06T05:15:59.547Z,3744.00
2018-07-06T05:16:59.599Z,3740.00
2018-07-06T05:17:59.502Z,3812.00
2018-07-06T05:18:59.478Z,3808.00
2018-07-06T05:19:59.451Z,3844.00
2018-07-06T05:20:59.427Z,3900.00
2018-07-06T05:21:59.402Z,4116.00
2018-07-06T05:22:59.377Z,4228.00
2018-07-06T05:23:59.353Z,4372.00
2018-07-06T05:24:59.331Z,4572.00
2018-07-06T05:25:59.308Z,4780.00
2018-07-06T05:26:59.284Z,5020.00
2018-07-06T05:27:59.260Z,5208.00
2018-07-06T05:28:59.236Z,4868.00
2018-07-06T05:29:59.211Z,4736.00
2018-07-06T05:30:59.188Z,4984.00
2018-07-06T05:31:59.170Z,5232.00
2018-07-06T05:32:59.142Z,4888.00
2018-07-06T05:33:59.115Z,4788.00
2018-07-06T05:34:59.090Z,4952.00
2018-07-06T05:35:59.067Z,5024.00
2018-07-06T05:36:59.046Z,5108.00
2018-07-06T05:37:59.022Z,5316.00
2018-07-06T05:38:58.996Z,5632.00
2018-07-06T05:39:58.973Z,5584.00
2018-07-06T05:40:58.947Z,5756.00
2018-07-06T05:41:58.924Z,5944.00
2018-07-06T05:42:58.900Z,6000.00
2018-07-06T05:43:58.894Z,6192.00
2018-07-06T05:44:58.854Z,6444.00
2018-07-06T05:45:58.828Z,6344.00
2018-07-06T05:46:58.805Z,6456.00
2018-07-06T05:47:58.818Z,7052.00
2018-07-06T05:48:58.758Z,7084.00
2018-07-06T05:49:58.735Z,6948.00
2018-07-06T05:50:58.710Z,6972.00
2018-07-06T05:51:58.705Z,7284.00
2018-07-06T05:52:58.663Z,6856.00
2018-07-06T05:53:58.638Z,6728.00
2018-07-06T05:54:58.614Z,6552.00
2018-07-06T05:55:58.592Z,6640.00
2018-07-06T05:56:58.572Z,6640.00
2018-07-06T05:57:58.546Z,6108.00
2018-07-06T05:58:58.521Z,6104.00
2018-07-06T05:59:58.499Z,6208.00
2018-07-06T06:00:58.476Z,6348.00
2018-07-06T06:01:58.450Z,6824.00
2018-07-06T06:02:58.427Z,7124.00
2018-07-06T06:03:58.402Z,7048.00
2018-07-06T06:04:58.381Z,6844.00
2018-07-06T06:05:58.357Z,7376.00
2018-07-06T06:06:58.333Z,6956.00
2018-07-06T06:07:58.314Z,6412.00
2018-07-06T06:08:58.287Z,6544.00
2018-07-06T06:09:58.262Z,7312.00
2018-07-06T06:10:58.246Z,7492.00
2018-07-06T06:11:58.213Z,6864.00
2018-07-06T06:12:58.193Z,6584.00
2018-07-06T06:13:58.173Z,7144.00
2018-07-06T06:14:58.144Z,7432.00
2018-07-06T06:15:58.126Z,7516.00
2018-07-06T06:16:58.097Z,7636.00
2018-07-06T06:17:58.074Z,8348.00
2018-07-06T06:18:58.220Z,9332.00
2018-07-06T06:19:58.029Z,10716.00
2018-07-06T06:20:58.005Z,10912.00
2018-07-06T06:21:57.977Z,9396.00
2018-07-06T06:22:57.968Z,9256.00
2018-07-06T06:23:57.949Z,10896.00
2018-07-06T06:24:57.932Z,11468.00
2018-07-06T06:25:57.887Z,10240.00
2018-07-06T06:26:58.064Z,8928.00
2018-07-06T06:27:57.840Z,8496.00
2018-07-06T06:28:57.817Z,7604.00
2018-07-06T06:29:57.790Z,7224.00
2018-07-06T06:30:57.768Z,6868.00
2018-07-06T06:31:57.743Z,7052.00
2018-07-06T06:32:57.758Z,6668.00
2018-07-06T06:33:57.721Z,6516.00
2018-07-06T06:34:57.673Z,6384.00
2018-07-06T06:35:57.651Z,6252.00
2018-07-06T06:36:57.636Z,7168.00
2018-07-06T06:37:57.807Z,7756.00
2018-07-06T06:38:57.783Z,7912.00
2018-07-06T06:40:00.385Z,7736.00
2018-07-06T06:40:57.735Z,7896.00
2018-07-06T06:41:57.532Z,7452.00
2018-07-06T06:42:57.486Z,7076.00
2018-07-06T06:43:57.462Z,6624.00
2018-07-06T06:44:57.441Z,6088.00
2018-07-06T06:45:57.419Z,6172.00
2018-07-06T06:46:57.395Z,6088.00
2018-07-06T06:47:57.369Z,5744.00
2018-07-06T06:48:57.346Z,6028.00
2018-07-06T06:49:57.325Z,5912.00
2018-07-06T06:50:57.300Z,5584.00
2018-07-06T06:51:57.479Z,5876.00
2018-07-06T06:52:57.309Z,5396.00
2018-07-06T06:53:57.225Z,5608.00
2018-07-06T06:54:57.211Z,5616.00
2018-07-06T06:55:57.178Z,5344.00
2018-07-06T06:56:57.158Z,5484.00
2018-07-06T06:57:57.133Z,5268.00
2018-07-06T06:58:57.160Z,5796.00
2018-07-06T06:59:57.085Z,8172.00
2018-07-06T07:00:57.085Z,7892.00
2018-07-06T07:01:57.039Z,8400.00
2018-07-06T07:02:57.011Z,9596.00
2018-07-06T07:03:56.989Z,10948.00
2018-07-06T07:04:56.966Z,12132.00
2018-07-06T07:05:56.944Z,12984.00
2018-07-06T07:06:56.917Z,12008.00
2018-07-06T07:07:56.894Z,13504.00
2018-07-06T07:08:56.872Z,13108.00
2018-07-06T07:09:57.051Z,12584.00
2018-07-06T07:10:56.828Z,13016.00
2018-07-06T07:11:56.805Z,13228.00
2018-07-06T07:12:56.779Z,10968.00
2018-07-06T07:13:56.954Z,7416.00
2018-07-06T07:14:56.727Z,8012.00
2018-07-06T07:15:56.704Z,8372.00
2018-07-06T07:16:56.682Z,7464.00
2018-07-06T07:17:56.659Z,6728.00
2018-07-06T07:18:56.635Z,6400.00
2018-07-06T07:19:56.611Z,6048.00
2018-07-06T07:20:56.590Z,6904.00
2018-07-06T07:21:56.567Z,6808.00
2018-07-06T07:22:56.540Z,7872.00
2018-07-06T07:23:56.518Z,9252.00
2018-07-06T07:24:56.492Z,9816.00
2018-07-06T07:25:56.469Z,10132.00
2018-07-06T07:26:56.446Z,10588.00
2018-07-06T07:27:56.421Z,10912.00
2018-07-06T07:28:56.602Z,10292.00
2018-07-06T07:29:56.375Z,10592.00
2018-07-06T07:30:56.352Z,11792.00
2018-07-06T07:31:56.334Z,12068.00
2018-07-06T07:32:56.307Z,13244.00
2018-07-06T07:33:56.284Z,13944.00
2018-07-06T07:34:56.256Z,13860.00
2018-07-06T07:35:59.059Z,11776.00
2018-07-06T07:36:56.213Z,10768.00
2018-07-06T07:37:56.187Z,10900.00
2018-07-06T07:38:56.192Z,10180.00
2018-07-06T07:39:56.139Z,10064.00
2018-07-06T07:40:56.124Z,10756.00
2018-07-06T07:41:56.097Z,10072.00
2018-07-06T07:42:56.071Z,10376.00
2018-07-06T07:43:56.047Z,10788.00
2018-07-06T07:44:56.023Z,12736.00
2018-07-06T07:45:55.999Z,12524.00
2018-07-06T07:46:56.177Z,12168.00
2018-07-06T07:47:55.957Z,13724.00
2018-07-06T07:48:55.931Z,13144.00
2018-07-06T07:49:55.909Z,14164.00
2018-07-06T07:50:55.885Z,15612.00
2018-07-06T07:51:55.865Z,16656.00
2018-07-06T07:52:55.841Z,16404.00
2018-07-06T07:53:55.816Z,16448.00
2018-07-06T07:54:55.793Z,16748.00
2018-07-06T07:55:55.773Z,13956.00
2018-07-06T07:56:55.745Z,12868.00
2018-07-06T07:57:55.722Z,12568.00
2018-07-06T07:58:55.698Z,11852.00
2018-07-06T07:59:55.675Z,12348.00
2018-07-06T08:00:55.793Z,11960.00
2018-07-06T08:01:55.632Z,11104.00
2018-07-06T08:02:55.609Z,12664.00
2018-07-06T08:03:55.587Z,15692.00
2018-07-06T08:04:55.581Z,15900.00
2018-07-06T08:05:55.538Z,16940.00
2018-07-06T08:06:55.519Z,16428.00
2018-07-06T08:07:55.491Z,15252.00
2018-07-06T08:08:55.691Z,13156.00
2018-07-06T08:09:55.450Z,11644.00
2018-07-06T08:10:55.437Z,13984.00
2018-07-06T08:11:55.510Z,13424.00
2018-07-06T08:12:55.381Z,14656.00
2018-07-06T08:13:55.356Z,15640.00
2018-07-06T08:14:55.333Z,18176.00
2018-07-06T08:15:55.312Z,21728.00
2018-07-06T08:16:56.312Z,28768.00
2018-07-06T08:17:55.472Z,37984.00
2018-07-06T08:18:55.246Z,46144.00
2018-07-06T08:19:55.221Z,39072.00
2018-07-06T08:20:55.203Z,32128.00
2018-07-06T08:21:55.178Z,36480.00
2018-07-06T08:22:55.152Z,41376.00
2018-07-06T08:23:58.155Z,46272.00
2018-07-06T08:24:55.313Z,114592.00
2018-07-06T08:26:37.442Z,44928.00
2018-07-06T08:27:37.420Z,46880.00
2018-07-06T08:28:37.406Z,40288.00
2018-07-06T08:29:37.380Z,90304.00
2018-07-06T08:30:37.158Z,105920.00
2018-07-06T08:31:37.234Z,89376.00
2018-07-06T08:32:37.122Z,97344.00
2018-07-06T08:33:37.297Z,94720.00
2018-07-06T08:34:37.276Z,94048.00
2018-07-06T08:35:37.053Z,101728.00
2018-07-06T08:37:19.396Z,55328.00
2018-07-06T08:39:01.530Z,32576.00
2018-07-06T08:40:43.668Z,66400.00
2018-07-06T08:41:44.459Z,34080.00
2018-07-06T08:44:09.157Z,96704.00
2018-07-06T08:46:32.238Z,64928.00
2018-07-06T08:47:32.219Z,51360.00
2018-07-06T08:48:31.999Z,121376.00
2018-07-06T08:49:32.187Z,45792.00
2018-07-06T08:50:31.968Z,38272.00
2018-07-06T08:51:32.151Z,37856.00
2018-07-06T08:52:31.935Z,35136.00
2018-07-06T08:53:31.924Z,115296.00
2018-07-06T08:54:31.904Z,108576.00
2018-07-06T08:55:32.082Z,103328.00
2018-07-06T08:56:32.065Z,98464.00
2018-07-06T08:57:32.052Z,100288.00
2018-07-06T08:58:32.107Z,106080.00
2018-07-06T09:00:14.674Z,96800.00
2018-07-06T09:01:14.157Z,36000.00
2018-07-06T09:02:13.937Z,114016.00
2018-07-06T09:03:14.126Z,37696.00
2018-07-06T09:04:57.482Z,106592.00
2018-07-06T09:05:56.048Z,81024.00
2018-07-06T09:06:56.234Z,109216.00
2018-07-06T09:07:56.019Z,108160.00
2018-07-06T09:08:56.002Z,106432.00
2018-07-06T09:10:40.966Z,105280.00
2018-07-06T09:11:38.332Z,103040.00
2018-07-06T09:12:38.117Z,101376.00
2018-07-06T09:13:38.102Z,101632.00
2018-07-06T09:14:38.290Z,104320.00
2018-07-06T09:15:38.071Z,109792.00
2018-07-06T09:16:38.054Z,105888.00
2018-07-06T09:17:38.038Z,103744.00
2018-07-06T09:18:38.223Z,100352.00
2018-07-06T09:19:38.055Z,100384.00
2018-07-06T09:20:38.197Z,102432.00
2018-07-06T09:21:37.979Z,100512.00
2018-07-06T09:22:37.962Z,97408.00
2018-07-06T09:23:38.150Z,101056.00
2018-07-06T09:24:37.934Z,102144.00
2018-07-06T09:25:38.131Z,101216.00
2018-07-06T09:26:38.107Z,103328.00
2018-07-06T09:27:37.893Z,105728.00
2018-07-06T09:28:38.078Z,105440.00
2018-07-06T09:29:37.860Z,105088.00
2018-07-06T09:30:37.844Z,103136.00
2018-07-06T09:31:38.031Z,103648.00
2018-07-06T09:32:38.017Z,105856.00
2018-07-06T09:33:37.803Z,104736.00
2018-07-06T09:34:37.790Z,104768.00
2018-07-06T09:35:37.979Z,105632.00
2018-07-06T09:36:37.759Z,102592.00
2018-07-06T09:37:37.744Z,105408.00
2018-07-06T09:38:37.933Z,109312.00
2018-07-06T09:39:37.715Z,107712.00
2018-07-06T09:40:37.701Z,107968.00
2018-07-06T09:41:37.689Z,101792.00
2018-07-06T09:42:37.876Z,96448.00
2018-07-06T09:43:37.660Z,104320.00
2018-07-06T09:44:37.645Z,108352.00
2018-07-06T09:45:37.634Z,105664.00
2018-07-06T09:46:37.621Z,103072.00
2018-07-06T09:47:37.612Z,100416.00
2018-07-06T09:48:37.594Z,101568.00
2018-07-06T09:49:37.575Z,103104.00
2018-07-06T09:50:37.565Z,103264.00
2018-07-06T09:51:37.547Z,101952.00
2018-07-06T09:52:37.533Z,102368.00
2018-07-06T09:53:37.522Z,101600.00
2018-07-06T09:54:37.508Z,100000.00
2018-07-06T09:55:37.494Z,102080.00
2018-07-06T09:56:37.480Z,103168.00
2018-07-06T09:57:37.466Z,102688.00
2018-07-06T09:58:37.496Z,102304.00
2018-07-06T09:59:37.438Z,105824.00
2018-07-06T10:00:37.424Z,105856.00
2018-07-06T10:01:37.411Z,105728.00
2018-07-06T10:02:37.396Z,105152.00
2018-07-06T10:03:37.588Z,104608.00
2018-07-06T10:04:38.192Z,101696.00
2018-07-06T10:05:37.591Z,99392.00
2018-07-06T10:06:37.550Z,100864.00
2018-07-06T10:07:37.341Z,101024.00
2018-07-06T10:08:37.318Z,100384.00
2018-07-06T10:09:37.301Z,103104.00
2018-07-06T10:10:37.297Z,103360.00
2018-07-06T10:11:37.276Z,103200.00
2018-07-06T10:12:37.324Z,99776.00
2018-07-06T10:13:37.251Z,100640.00
2018-07-06T10:14:37.236Z,101952.00
2018-07-06T10:15:37.236Z,104608.00
2018-07-06T10:16:37.411Z,104768.00
2018-07-06T10:17:37.195Z,101472.00
2018-07-06T10:18:37.387Z,100256.00
2018-07-06T10:19:37.228Z,104960.00
2018-07-06T10:20:37.153Z,107040.00
2018-07-06T10:21:37.346Z,102176.00
2018-07-06T10:22:37.331Z,98080.00
2018-07-06T10:23:37.115Z,99968.00
2018-07-06T10:24:37.305Z,100992.00
2018-07-06T10:25:37.299Z,105024.00
2018-07-06T10:26:37.072Z,105792.00
2018-07-06T10:27:37.059Z,105088.00
2018-07-06T10:28:37.247Z,105344.00
2018-07-06T10:29:37.032Z,108064.00
2018-07-06T10:30:37.018Z,105952.00
2018-07-06T10:31:37.205Z,107008.00
2018-07-06T10:32:37.193Z,101920.00
2018-07-06T10:33:37.049Z,86528.00
2018-07-06T10:34:37.170Z,88800.00
2018-07-06T10:35:36.952Z,100704.00
2018-07-06T10:36:36.939Z,106112.00
2018-07-06T10:37:36.923Z,108992.00
2018-07-06T10:38:36.920Z,107552.00
2018-07-06T10:39:37.058Z,106816.00
2018-07-06T10:40:37.085Z,109152.00
2018-07-06T10:41:36.871Z,107136.00
2018-07-06T10:42:36.863Z,103680.00
2018-07-06T10:43:36.844Z,104992.00
2018-07-06T10:44:36.830Z,106784.00
2018-07-06T10:45:36.817Z,107904.00
2018-07-06T10:46:36.855Z,106624.00
2018-07-06T10:47:36.788Z,111232.00
2018-07-06T10:48:36.984Z,112736.00
2018-07-06T10:49:36.967Z,108928.00
2018-07-06T10:50:36.749Z,111392.00
2018-07-06T10:51:36.937Z,112160.00
2018-07-06T10:52:36.923Z,55104.00
2018-07-06T10:53:36.711Z,95424.00
2018-07-06T10:54:36.697Z,108544.00
2018-07-06T10:55:36.683Z,108480.00
2018-07-06T10:56:36.677Z,108640.00
2018-07-06T10:57:36.656Z,112512.00
2018-07-06T10:58:36.645Z,111456.00
2018-07-06T10:59:36.630Z,110528.00
2018-07-06T11:00:36.617Z,111072.00
2018-07-06T11:01:36.604Z,110080.00
2018-07-06T11:02:36.593Z,109920.00
2018-07-06T11:03:36.577Z,111584.00
2018-07-06T11:04:36.567Z,112960.00
2018-07-06T11:05:36.555Z,112640.00
2018-07-06T11:06:36.542Z,111904.00
2018-07-06T11:07:36.538Z,114048.00
2018-07-06T11:08:36.514Z,115744.00
2018-07-06T11:09:36.500Z,113824.00
2018-07-06T11:10:36.486Z,115008.00
2018-07-06T11:11:36.490Z,112768.00
2018-07-06T11:12:36.663Z,110656.00
2018-07-06T11:13:36.449Z,112096.00
2018-07-06T11:14:36.446Z,112512.00
2018-07-06T11:15:36.447Z,110784.00
2018-07-06T11:16:36.409Z,108672.00
2018-07-06T11:17:36.401Z,106784.00
2018-07-06T11:18:36.384Z,109440.00
2018-07-06T11:19:36.379Z,110400.00
2018-07-06T11:20:36.360Z,110784.00
2018-07-06T11:21:36.344Z,109888.00
2018-07-06T11:22:36.538Z,108576.00
2018-07-06T11:23:37.328Z,110016.00
2018-07-06T11:24:36.507Z,112992.00
2018-07-06T11:25:36.295Z,112224.00
2018-07-06T11:26:36.281Z,113344.00
2018-07-06T11:27:36.273Z,114272.00
2018-07-06T11:28:36.253Z,113824.00
2018-07-06T11:29:36.240Z,114304.00
2018-07-06T11:30:36.226Z,113600.00
2018-07-06T11:31:36.213Z,115296.00
2018-07-06T11:32:36.201Z,116288.00
2018-07-06T11:33:36.186Z,117088.00
2018-07-06T11:34:36.175Z,113056.00
2018-07-06T11:35:36.162Z,110112.00
2018-07-06T11:36:36.149Z,111456.00
2018-07-06T11:37:36.138Z,115968.00
2018-07-06T11:38:36.126Z,118016.00
2018-07-06T11:39:36.112Z,118528.00
2018-07-06T11:40:36.099Z,111840.00
2018-07-06T11:41:36.087Z,104480.00
2018-07-06T11:42:36.071Z,108384.00
2018-07-06T11:43:36.057Z,112480.00
2018-07-06T11:44:36.043Z,114496.00
2018-07-06T11:45:36.034Z,114752.00
2018-07-06T11:46:36.024Z,115200.00
2018-07-06T11:47:36.012Z,114656.00
2018-07-06T11:48:35.995Z,113056.00
2018-07-06T11:49:35.981Z,114080.00
2018-07-06T11:50:36.872Z,116448.00
2018-07-06T11:51:35.957Z,112512.00
2018-07-06T11:52:35.942Z,111424.00
2018-07-06T11:53:35.927Z,112928.00
2018-07-06T11:54:35.914Z,114528.00
2018-07-06T11:55:35.901Z,104736.00
2018-07-06T11:56:35.889Z,94272.00
2018-07-06T11:57:35.877Z,104128.00
2018-07-06T11:58:35.866Z,114944.00
2018-07-06T11:59:35.851Z,116992.00
2018-07-06T12:00:35.837Z,116864.00
2018-07-06T12:01:35.823Z,116128.00
2018-07-06T12:02:35.811Z,117696.00
2018-07-06T12:03:35.812Z,114976.00
2018-07-06T12:04:35.906Z,112992.00
2018-07-06T12:05:35.779Z,111296.00
2018-07-06T12:06:35.761Z,108416.00
2018-07-06T12:07:35.748Z,106208.00
2018-07-06T12:08:35.735Z,111136.00
2018-07-06T12:09:35.725Z,111584.00
2018-07-06T12:10:35.712Z,93696.00
2018-07-06T12:11:35.702Z,91648.00
2018-07-06T12:12:35.687Z,99680.00
2018-07-06T12:13:35.672Z,108128.00
2018-07-06T12:14:35.666Z,116736.00